createdAt,value
2022-09-29T00:01:16.697Z,13.68
2022-09-29T00:03:45.062Z,13.46
2022-09-29T00:06:16.302Z,13.48
2022-09-29T00:08:45.398Z,13.43
2022-09-29T00:11:17.030Z,13.19
2022-09-29T00:13:46.569Z,13.01
2022-09-29T00:16:15.497Z,13.24
2022-09-29T00:18:43.912Z,13.33
2022-09-29T00:21:19.702Z,13.46
2022-09-29T00:23:49.475Z,13.47
2022-09-29T00:26:20.878Z,13.37
2022-09-29T00:28:58.176Z,13.45
2022-09-29T00:31:29.048Z,13.30
2022-09-29T00:33:58.111Z,13.33
2022-09-29T00:36:30.193Z,13.34
2022-09-29T00:38:59.700Z,13.35
2022-09-29T00:41:33.720Z,13.36
2022-09-29T00:44:06.621Z,13.39
2022-09-29T00:46:50.239Z,13.33
2022-09-29T00:49:25.237Z,13.15
2022-09-29T00:52:15.287Z,13.20
2022-09-29T00:54:48.384Z,13.21
2022-09-29T00:57:19.762Z,13.15
2022-09-29T00:59:54.944Z,13.14
2022-09-29T01:02:24.137Z,13.11
2022-09-29T01:04:54.272Z,13.16
2022-09-29T01:07:24.196Z,13.11
2022-09-29T01:09:56.731Z,13.13
2022-09-29T01:12:25.168Z,13.12
2022-09-29T01:14:55.116Z,13.09
2022-09-29T01:17:23.880Z,13.04
2022-09-29T01:20:20.547Z,13.05
2022-09-29T01:23:07.373Z,12.93
2022-09-29T01:26:01.878Z,13.03
2022-09-29T01:28:40.512Z,12.93
2022-09-29T01:31:16.209Z,12.92
2022-09-29T01:34:22.790Z,12.83
2022-09-29T01:36:54.053Z,12.81
2022-09-29T01:39:38.595Z,12.95
2022-09-29T01:42:13.679Z,12.82
2022-09-29T01:44:48.096Z,12.77
2022-09-29T01:47:37.537Z,12.92
2022-09-29T01:50:16.204Z,12.88
2022-09-29T01:52:49.817Z,12.66
2022-09-29T01:55:21.778Z,12.66
2022-09-29T01:57:59.808Z,12.73
2022-09-29T02:00:32.347Z,12.73
2022-09-29T02:03:13.302Z,12.77
2022-09-29T02:06:04.588Z,12.66
2022-09-29T02:08:47.062Z,12.54
2022-09-29T02:11:17.260Z,12.44
2022-09-29T02:13:48.948Z,12.54
2022-09-29T02:16:21.965Z,12.58
2022-09-29T02:18:58.247Z,12.58
2022-09-29T02:21:28.103Z,12.59
2022-09-29T02:23:57.321Z,12.50
2022-09-29T02:26:31.389Z,12.54
2022-09-29T02:29:01.967Z,12.38
2022-09-29T02:31:33.192Z,12.45
2022-09-29T02:34:04.026Z,12.36
2022-09-29T02:37:14.307Z,12.31
2022-09-29T02:39:56.008Z,12.24
2022-09-29T02:42:49.116Z,12.28
2022-09-29T02:45:42.175Z,12.28
2022-09-29T02:48:31.678Z,12.30
2022-09-29T02:51:20.441Z,12.28
2022-09-29T02:54:06.767Z,12.30
2022-09-29T02:56:38.006Z,12.23
2022-09-29T02:59:12.027Z,12.28
2022-09-29T03:01:52.231Z,12.17
2022-09-29T03:04:24.348Z,12.17
2022-09-29T03:06:53.654Z,12.14
2022-09-29T03:09:22.027Z,12.23
2022-09-29T03:11:50.388Z,12.18
2022-09-29T03:14:18.899Z,12.03
2022-09-29T03:16:47.513Z,12.03
2022-09-29T03:19:15.911Z,12.09
2022-09-29T03:21:44.347Z,12.09
2022-09-29T03:24:12.863Z,12.12
2022-09-29T03:26:41.249Z,12.17
2022-09-29T03:29:09.663Z,12.06
2022-09-29T03:31:40.300Z,12.03
2022-09-29T03:34:08.823Z,11.91
2022-09-29T03:36:37.269Z,11.68
2022-09-29T03:39:05.782Z,11.61
2022-09-29T03:41:34.588Z,11.54
2022-09-29T03:44:03.056Z,11.46
2022-09-29T03:46:31.449Z,11.27
2022-09-29T03:48:59.837Z,11.23
2022-09-29T03:51:29.192Z,11.36
2022-09-29T03:53:57.616Z,11.59
2022-09-29T03:56:26.000Z,11.58
2022-09-29T03:58:55.321Z,11.53
2022-09-29T04:01:23.761Z,11.53
2022-09-29T04:03:52.158Z,11.63
2022-09-29T04:06:20.534Z,11.43
2022-09-29T04:08:49.436Z,11.18
2022-09-29T04:11:18.776Z,10.94
2022-09-29T04:13:47.611Z,11.07
2022-09-29T04:16:16.078Z,11.32
2022-09-29T04:18:44.492Z,11.44
2022-09-29T04:21:12.842Z,11.41
2022-09-29T04:23:42.175Z,11.09
2022-09-29T04:26:11.626Z,10.98
2022-09-29T04:28:40.043Z,10.87
2022-09-29T04:31:08.703Z,10.97
2022-09-29T04:33:39.121Z,11.12
2022-09-29T04:36:07.917Z,11.17
2022-09-29T04:38:36.288Z,11.35
2022-09-29T04:41:05.774Z,11.47
2022-09-29T04:43:34.202Z,11.48
2022-09-29T04:46:07.368Z,11.19
2022-09-29T04:48:36.527Z,11.07
2022-09-29T04:51:05.749Z,11.08
2022-09-29T04:53:34.149Z,11.32
2022-09-29T04:56:07.094Z,11.39
2022-09-29T04:58:36.151Z,11.31
2022-09-29T05:01:06.823Z,11.30
2022-09-29T05:03:35.192Z,11.38
2022-09-29T05:06:03.694Z,11.30
2022-09-29T05:08:32.097Z,11.32
2022-09-29T05:11:05.335Z,11.48
2022-09-29T05:13:34.570Z,11.43
2022-09-29T05:16:04.238Z,11.36
2022-09-29T05:18:32.968Z,11.24
2022-09-29T05:21:29.693Z,11.34
2022-09-29T05:23:55.077Z,11.31
2022-09-29T05:26:23.985Z,11.34
2022-09-29T05:28:52.462Z,11.25
2022-09-29T05:31:21.340Z,11.17
2022-09-29T05:33:49.792Z,11.08
2022-09-29T05:36:18.269Z,10.98
2022-09-29T05:38:46.655Z,11.15
2022-09-29T05:41:24.439Z,11.05
2022-09-29T05:43:54.699Z,10.85
2022-09-29T05:46:23.564Z,10.71
2022-09-29T05:48:52.017Z,10.61
2022-09-29T05:51:23.497Z,10.70
2022-09-29T05:53:52.758Z,10.71
2022-09-29T05:56:23.739Z,10.60
2022-09-29T05:58:53.899Z,10.60
2022-09-29T06:01:26.526Z,10.84
2022-09-29T06:03:56.341Z,10.81
2022-09-29T06:06:27.491Z,11.12
2022-09-29T06:08:58.235Z,11.14
2022-09-29T06:11:29.608Z,11.15
2022-09-29T06:13:59.525Z,11.18
2022-09-29T06:16:30.138Z,11.35
2022-09-29T06:19:02.052Z,11.52
2022-09-29T06:21:31.924Z,11.61
2022-09-29T06:24:02.603Z,11.67
2022-09-29T06:26:31.187Z,11.61
2022-09-29T06:28:59.626Z,11.72
2022-09-29T06:31:30.628Z,11.87
2022-09-29T06:34:00.471Z,11.79
2022-09-29T06:36:55.126Z,11.82
2022-09-29T06:39:23.698Z,11.77
2022-09-29T06:41:54.361Z,11.74
2022-09-29T06:44:25.072Z,11.86
2022-09-29T06:46:54.743Z,11.93
2022-09-29T06:49:24.128Z,12.05
2022-09-29T06:51:54.186Z,12.20
2022-09-29T06:54:26.570Z,12.14
2022-09-29T06:56:55.455Z,12.26
2022-09-29T06:59:24.094Z,12.59
2022-09-29T07:01:52.816Z,12.81
2022-09-29T07:04:21.879Z,12.79
2022-09-29T07:06:50.969Z,12.72
2022-09-29T07:09:21.032Z,12.62
2022-09-29T07:11:51.753Z,12.42
2022-09-29T07:14:22.820Z,12.55
2022-09-29T07:16:52.804Z,12.57
2022-09-29T07:19:22.230Z,12.58
2022-09-29T07:21:52.240Z,12.57
2022-09-29T07:24:20.798Z,12.54
2022-09-29T07:26:49.157Z,12.66
2022-09-29T07:29:18.791Z,12.79
2022-09-29T07:31:51.856Z,12.84
2022-09-29T07:34:21.107Z,12.90
2022-09-29T07:36:51.577Z,13.00
2022-09-29T07:39:21.273Z,13.30
2022-09-29T07:41:50.230Z,13.39
2022-09-29T07:44:18.777Z,13.60
2022-09-29T07:46:48.968Z,13.67
2022-09-29T07:49:18.041Z,13.71
2022-09-29T07:51:46.356Z,13.69
2022-09-29T07:54:14.950Z,13.61
2022-09-29T07:56:43.314Z,13.74
2022-09-29T07:59:11.811Z,13.84
2022-09-29T08:01:40.172Z,13.92
2022-09-29T08:04:08.633Z,14.03
2022-09-29T08:06:38.178Z,13.94
2022-09-29T08:09:06.561Z,13.87
2022-09-29T08:11:38.733Z,13.96
2022-09-29T08:14:07.323Z,14.14
2022-09-29T08:16:36.595Z,14.10
2022-09-29T08:19:06.169Z,14.27
2022-09-29T08:21:37.042Z,14.18
2022-09-29T08:24:06.594Z,14.36
2022-09-29T08:26:43.516Z,14.38
2022-09-29T08:29:16.948Z,14.46
2022-09-29T08:31:47.215Z,14.55
2022-09-29T08:34:15.984Z,14.71
2022-09-29T08:36:44.558Z,14.77
2022-09-29T08:39:12.983Z,14.76
2022-09-29T08:42:13.478Z,14.95
2022-09-29T08:45:02.639Z,15.16
2022-09-29T08:47:47.296Z,15.19
2022-09-29T08:50:16.572Z,15.31
2022-09-29T08:52:56.326Z,15.31
2022-09-29T08:55:24.842Z,15.30
2022-09-29T08:58:01.546Z,15.25
2022-09-29T09:00:52.057Z,15.61
2022-09-29T09:03:41.941Z,15.71
2022-09-29T09:06:13.494Z,15.87
2022-09-29T09:08:47.853Z,16.05
2022-09-29T09:11:33.807Z,15.91
2022-09-29T09:14:14.039Z,16.12
2022-09-29T09:17:04.034Z,16.28
2022-09-29T09:19:42.408Z,16.38
2022-09-29T09:22:25.288Z,16.55
2022-09-29T09:24:56.816Z,16.64
2022-09-29T09:27:35.577Z,16.49
2022-09-29T09:30:14.439Z,16.54
2022-09-29T09:32:50.299Z,16.28
2022-09-29T09:35:23.686Z,15.77
2022-09-29T09:37:57.917Z,16.23
2022-09-29T09:40:29.673Z,16.29
2022-09-29T09:43:10.745Z,16.04
2022-09-29T09:45:56.887Z,16.48
2022-09-29T09:48:46.748Z,17.02
2022-09-29T09:54:15.937Z,17.01
2022-09-29T09:56:59.573Z,16.98
2022-09-29T09:59:58.254Z,17.19
2022-09-29T10:02:26.900Z,17.02
2022-09-29T10:04:56.199Z,17.13
2022-09-29T10:07:27.789Z,17.28
2022-09-29T10:09:58.395Z,17.44
2022-09-29T10:12:26.816Z,17.51
2022-09-29T10:15:05.166Z,17.69
2022-09-29T10:17:39.928Z,17.70
2022-09-29T10:20:09.301Z,17.71
2022-09-29T10:22:39.021Z,17.64
2022-09-29T10:25:25.603Z,17.89
2022-09-29T10:27:57.317Z,17.87
2022-09-29T10:30:34.744Z,17.78
2022-09-29T10:33:09.140Z,17.91
2022-09-29T10:35:43.291Z,18.03
2022-09-29T10:38:24.310Z,18.23
2022-09-29T10:41:05.269Z,18.32
2022-09-29T10:43:42.404Z,18.45
2022-09-29T10:46:54.357Z,18.55
2022-09-29T10:49:26.818Z,18.44
2022-09-29T10:52:01.941Z,18.46
2022-09-29T10:54:34.582Z,18.28
2022-09-29T10:57:16.389Z,18.45
2022-09-29T10:59:49.623Z,18.33
2022-09-29T11:02:22.352Z,18.52
2022-09-29T11:04:52.439Z,18.75
2022-09-29T11:07:21.068Z,18.77
2022-09-29T11:09:51.171Z,18.61
2022-09-29T11:12:29.085Z,18.87
2022-09-29T11:15:00.256Z,18.69
2022-09-29T11:17:30.087Z,18.81
2022-09-29T11:20:03.944Z,18.72
2022-09-29T11:23:13.374Z,18.51
2022-09-29T11:26:10.287Z,18.83
2022-09-29T11:28:51.034Z,18.72
2022-09-29T11:31:38.013Z,18.95
2022-09-29T11:34:34.242Z,18.34
2022-09-29T11:37:11.437Z,17.54
2022-09-29T11:40:02.122Z,18.10
2022-09-29T11:42:56.983Z,17.36
2022-09-29T11:45:45.239Z,17.48
2022-09-29T11:48:39.490Z,17.90
2022-09-29T11:51:25.006Z,18.26
2022-09-29T11:54:13.223Z,18.49
2022-09-29T11:56:49.437Z,18.39
2022-09-29T11:59:25.961Z,18.34
2022-09-29T12:02:03.778Z,18.18
2022-09-29T12:04:48.732Z,17.98
2022-09-29T12:07:46.542Z,18.27
2022-09-29T12:10:37.233Z,18.56
2022-09-29T12:13:21.410Z,18.44
2022-09-29T12:16:16.181Z,18.30
2022-09-29T12:18:47.808Z,18.22
2022-09-29T12:24:00.463Z,18.51
2022-09-29T12:26:31.101Z,18.42
2022-09-29T12:29:51.461Z,18.75
2022-09-29T12:32:28.544Z,18.38
2022-09-29T12:35:09.727Z,18.79
2022-09-29T12:37:41.222Z,18.78
2022-09-29T12:40:20.391Z,19.00
2022-09-29T12:43:25.990Z,18.86
2022-09-29T12:46:06.196Z,19.13
2022-09-29T12:48:54.638Z,18.97
2022-09-29T12:51:33.866Z,19.29
2022-09-29T12:54:13.894Z,18.85
2022-09-29T12:56:48.095Z,19.03
2022-09-29T12:59:37.263Z,18.95
2022-09-29T13:02:39.060Z,19.06
2022-09-29T13:05:26.391Z,19.31
2022-09-29T13:08:02.212Z,19.35
2022-09-29T13:10:57.649Z,19.35
2022-09-29T13:13:53.916Z,19.06
2022-09-29T13:16:31.462Z,19.05
2022-09-29T13:19:33.808Z,19.67
2022-09-29T13:22:47.053Z,19.82
2022-09-29T13:25:23.833Z,19.78
2022-09-29T13:27:53.828Z,19.81
2022-09-29T13:30:31.210Z,20.07
2022-09-29T13:33:09.081Z,19.88
2022-09-29T13:35:40.541Z,20.06
2022-09-29T13:38:23.315Z,20.13
2022-09-29T13:41:35.128Z,20.17
2022-09-29T13:44:31.792Z,20.29
2022-09-29T13:47:33.092Z,20.61
2022-09-29T13:50:40.234Z,20.64
2022-09-29T13:53:28.050Z,20.55
2022-09-29T13:55:56.491Z,19.89
2022-09-29T13:58:38.539Z,19.86
2022-09-29T14:01:10.237Z,19.87
2022-09-29T14:03:44.306Z,20.23
2022-09-29T14:09:23.198Z,20.76
2022-09-29T14:11:53.326Z,20.20
2022-09-29T14:14:45.795Z,20.49
2022-09-29T14:17:21.238Z,20.01
2022-09-29T14:19:52.757Z,20.47
2022-09-29T14:22:30.118Z,19.41
2022-09-29T14:25:10.978Z,19.98
2022-09-29T14:27:49.200Z,20.15
2022-09-29T14:30:35.838Z,20.02
2022-09-29T14:33:14.422Z,19.77
2022-09-29T14:35:58.767Z,20.12
2022-09-29T14:38:54.051Z,20.18
2022-09-29T14:41:39.896Z,19.31
2022-09-29T14:44:55.164Z,19.85
2022-09-29T14:48:09.240Z,19.27
2022-09-29T14:51:16.352Z,19.80
2022-09-29T14:53:57.020Z,20.20
2022-09-29T14:56:44.116Z,19.61
2022-09-29T14:59:37.818Z,19.75
2022-09-29T15:02:16.483Z,19.08
2022-09-29T15:04:46.497Z,18.71
2022-09-29T15:07:17.877Z,18.90
2022-09-29T15:09:53.040Z,18.80
2022-09-29T15:12:28.926Z,19.18
2022-09-29T15:14:58.940Z,19.62
2022-09-29T15:17:34.560Z,19.21
2022-09-29T15:20:27.657Z,19.49
2022-09-29T15:23:17.677Z,18.99
2022-09-29T15:25:47.099Z,19.10
2022-09-29T15:28:15.499Z,19.22
2022-09-29T15:30:45.887Z,19.29
2022-09-29T15:33:18.168Z,19.29
2022-09-29T15:35:52.227Z,19.24
2022-09-29T15:38:23.438Z,19.38
2022-09-29T15:40:56.997Z,19.63
2022-09-29T15:43:28.289Z,19.64
2022-09-29T15:46:00.154Z,19.45
2022-09-29T15:48:30.921Z,19.66
2022-09-29T15:51:01.836Z,19.69
2022-09-29T15:53:32.740Z,19.44
2022-09-29T15:56:01.510Z,19.29
2022-09-29T15:58:32.998Z,19.19
2022-09-29T16:01:14.520Z,19.12
2022-09-29T16:03:50.711Z,19.05
2022-09-29T16:06:32.463Z,19.05
2022-09-29T16:09:04.110Z,18.99
2022-09-29T16:11:38.128Z,19.28
2022-09-29T16:14:11.921Z,19.35
2022-09-29T16:16:44.295Z,19.08
2022-09-29T16:19:32.623Z,18.91
2022-09-29T16:22:04.906Z,18.81
2022-09-29T16:24:36.393Z,18.87
2022-09-29T16:27:05.888Z,18.89
2022-09-29T16:29:36.084Z,18.97
2022-09-29T16:32:39.822Z,19.08
2022-09-29T16:35:41.610Z,19.05
2022-09-29T16:38:16.020Z,19.05
2022-09-29T16:40:45.215Z,19.07
2022-09-29T16:43:31.815Z,19.42
2022-09-29T16:46:02.406Z,19.39
2022-09-29T16:48:37.452Z,19.09
2022-09-29T16:51:38.714Z,19.16
2022-09-29T16:54:16.470Z,19.34
2022-09-29T16:56:47.591Z,19.35
2022-09-29T16:59:19.989Z,19.28
2022-09-29T17:01:48.538Z,19.05
2022-09-29T17:04:17.098Z,19.02
2022-09-29T17:06:48.212Z,19.05
2022-09-29T17:09:20.618Z,19.04
2022-09-29T17:11:49.498Z,18.98
2022-09-29T17:14:21.709Z,18.91
2022-09-29T17:16:51.634Z,18.74
2022-09-29T17:19:20.822Z,18.69
2022-09-29T17:24:18.041Z,18.64
2022-09-29T17:27:15.525Z,18.50
2022-09-29T17:29:44.791Z,18.34
2022-09-29T17:32:14.979Z,18.33
2022-09-29T17:34:43.324Z,18.23
2022-09-29T17:37:11.814Z,18.14
2022-09-29T17:39:40.203Z,18.00
2022-09-29T17:42:08.596Z,17.95
2022-09-29T17:44:40.703Z,17.86
2022-09-29T17:47:27.279Z,17.82
2022-09-29T17:49:56.505Z,17.64
2022-09-29T17:52:25.585Z,17.59
2022-09-29T17:54:53.918Z,17.64
2022-09-29T17:57:28.010Z,17.64
2022-09-29T17:59:58.117Z,17.57
2022-09-29T18:02:26.568Z,17.66
2022-09-29T18:04:54.972Z,17.62
2022-09-29T18:07:23.475Z,17.63
2022-09-29T18:09:51.790Z,17.47
2022-09-29T18:12:20.152Z,17.38
2022-09-29T18:14:48.475Z,17.26
2022-09-29T18:17:16.915Z,17.27
2022-09-29T18:19:45.619Z,17.32
2022-09-29T18:22:13.957Z,17.34
2022-09-29T18:24:42.274Z,17.42
2022-09-29T18:27:14.736Z,17.41
2022-09-29T18:29:43.232Z,17.38
2022-09-29T18:32:17.492Z,17.39
2022-09-29T18:34:45.808Z,17.05
2022-09-29T18:37:14.744Z,16.97
2022-09-29T18:39:43.092Z,16.99
2022-09-29T18:42:12.294Z,16.90
2022-09-29T18:44:41.281Z,16.71
2022-09-29T18:47:12.057Z,16.61
2022-09-29T18:49:40.448Z,16.71
2022-09-29T18:52:10.102Z,16.72
2022-09-29T18:54:38.455Z,16.72
2022-09-29T18:57:12.278Z,16.78
2022-09-29T18:59:40.603Z,16.65
2022-09-29T19:02:13.576Z,16.62
2022-09-29T19:04:42.049Z,16.54
2022-09-29T19:07:12.280Z,16.46
2022-09-29T19:09:41.755Z,16.49
2022-09-29T19:12:11.195Z,16.44
2022-09-29T19:14:40.941Z,16.37
2022-09-29T19:17:09.364Z,16.31
2022-09-29T19:19:38.746Z,16.38
2022-09-29T19:22:12.264Z,16.44
2022-09-29T19:24:40.717Z,16.42
2022-09-29T19:27:09.095Z,16.45
2022-09-29T19:29:39.589Z,16.43
2022-09-29T19:32:08.404Z,16.45
2022-09-29T19:34:36.774Z,16.46
2022-09-29T19:37:12.530Z,16.38
2022-09-29T19:39:44.823Z,16.10
2022-09-29T19:42:16.365Z,15.98
2022-09-29T19:44:44.731Z,15.88
2022-09-29T19:47:13.322Z,15.97
2022-09-29T19:49:41.741Z,16.06
2022-09-29T19:52:10.264Z,16.07
2022-09-29T19:54:40.215Z,15.99
2022-09-29T19:57:12.737Z,15.96
2022-09-29T19:59:41.673Z,15.73
2022-09-29T20:02:14.693Z,15.66
2022-09-29T20:04:44.416Z,15.76
2022-09-29T20:07:12.824Z,15.82
2022-09-29T20:09:41.270Z,15.83
2022-09-29T20:12:09.962Z,15.89
2022-09-29T20:14:39.235Z,15.80
2022-09-29T20:17:07.646Z,15.47
2022-09-29T20:19:35.985Z,15.45
2022-09-29T20:22:05.812Z,15.40
2022-09-29T20:24:34.226Z,15.42
2022-09-29T20:27:03.034Z,15.38
2022-09-29T20:29:31.630Z,15.34
2022-09-29T20:32:00.810Z,15.13
2022-09-29T20:34:29.203Z,15.17
2022-09-29T20:36:58.112Z,15.34
2022-09-29T20:39:26.615Z,15.38
2022-09-29T20:41:55.386Z,15.28
2022-09-29T20:44:25.731Z,15.37
2022-09-29T20:46:56.601Z,15.29
2022-09-29T20:49:26.405Z,15.22
2022-09-29T20:51:55.149Z,15.27
2022-09-29T20:54:23.840Z,15.32
2022-09-29T20:56:53.638Z,15.32
2022-09-29T20:59:23.496Z,15.31
2022-09-29T21:01:53.623Z,15.21
2022-09-29T21:04:22.814Z,15.17
2022-09-29T21:06:52.585Z,15.04
2022-09-29T21:09:23.974Z,15.04
2022-09-29T21:11:54.395Z,14.89
2022-09-29T21:14:26.627Z,14.75
2022-09-29T21:16:55.367Z,14.69
2022-09-29T21:19:26.645Z,14.68
2022-09-29T21:21:56.126Z,14.83
2022-09-29T21:24:25.504Z,14.85
2022-09-29T21:26:54.916Z,14.91
2022-09-29T21:29:23.256Z,14.86
2022-09-29T21:31:51.723Z,14.75
2022-09-29T21:34:21.058Z,14.81
2022-09-29T21:36:49.841Z,14.84
2022-09-29T21:39:18.371Z,14.84
2022-09-29T21:41:46.841Z,14.84
2022-09-29T21:44:24.025Z,14.92
2022-09-29T21:46:53.137Z,14.90
2022-09-29T21:49:21.597Z,14.72
2022-09-29T21:51:50.949Z,14.79
2022-09-29T21:54:22.702Z,14.89
2022-09-29T21:56:51.668Z,14.95
2022-09-29T21:59:22.518Z,14.66
2022-09-29T22:01:52.181Z,14.64
2022-09-29T22:04:21.064Z,14.66
2022-09-29T22:06:49.599Z,14.61
2022-09-29T22:09:21.012Z,14.46
2022-09-29T22:11:50.318Z,14.45
2022-09-29T22:14:19.060Z,14.50
2022-09-29T22:16:47.589Z,14.49
2022-09-29T22:19:23.479Z,14.43
2022-09-29T22:21:53.906Z,14.32
2022-09-29T22:24:27.688Z,14.24
2022-09-29T22:26:56.119Z,14.27
2022-09-29T22:29:24.822Z,14.32
2022-09-29T22:31:53.447Z,14.34
2022-09-29T22:34:21.866Z,14.35
2022-09-29T22:36:50.217Z,14.32
2022-09-29T22:39:18.680Z,14.39
2022-09-29T22:41:47.092Z,14.20
2022-09-29T22:44:15.579Z,14.01
2022-09-29T22:46:43.959Z,14.07
2022-09-29T22:49:12.369Z,14.10
2022-09-29T22:51:41.155Z,14.11
2022-09-29T22:54:09.534Z,14.20
2022-09-29T22:56:39.820Z,14.23
2022-09-29T22:59:08.239Z,14.16
2022-09-29T23:01:36.566Z,14.18
2022-09-29T23:04:05.052Z,14.21
2022-09-29T23:06:33.940Z,14.17
2022-09-29T23:09:02.405Z,14.11
2022-09-29T23:11:32.712Z,14.05
2022-09-29T23:14:01.061Z,13.98
2022-09-29T23:16:29.462Z,13.99
2022-09-29T23:18:58.656Z,14.02
2022-09-29T23:21:27.153Z,14.06
2022-09-29T23:23:59.349Z,13.99
2022-09-29T23:26:28.905Z,13.95
2022-09-29T23:28:57.348Z,13.86
2022-09-29T23:31:26.860Z,13.84
2022-09-29T23:33:58.277Z,13.81
2022-09-29T23:36:28.601Z,13.80
2022-09-29T23:39:10.224Z,13.73
2022-09-29T23:41:46.002Z,13.71
2022-09-29T23:44:17.158Z,13.75
2022-09-29T23:46:46.231Z,13.71
2022-09-29T23:49:17.332Z,13.73
2022-09-29T23:51:48.377Z,13.75
2022-09-29T23:54:19.091Z,13.72
2022-09-29T23:56:49.300Z,13.72
2022-09-29T23:59:18.025Z,13.67
